EIN weather

Eindhoven Airport
Eindhoven, Noord-Brabant, Netherlands

Public forecast

Using degrees Celsius for public forecast. Weather courtesy of forecast.io.

Current aviation weather report (METAR) for Eindhoven Airport

Retrieved 2019/11/20 11:25 UTC (0 seconds ago):

EHEH 201125Z AUTO 11004KT 060V160 9999 NCD 06/01 Q1017 BLU 13005KT CAVOK

Aviation forecast (TAF) for Eindhoven Airport

Retrieved 2019/11/20 06:00 UTC (5 hours ago):

TAF EHEH 200512Z 2006/2112 VRB03KT 7000 NSC TEMPO 2006/2018 3000 BR MIFG PROB40 TEMPO 2006/2009 0500 FZFG BECMG 2010/2013 09006KT PROB40 TEMPO 2010/2018 SCT004 BKN008 PROB40 TEMPO 2020/2108 4000 BR